createdAt,value
2022-08-23T00:00:44.314Z,17.60
2022-08-23T00:03:47.178Z,17.29
2022-08-23T00:06:49.751Z,17.48
2022-08-23T00:09:51.859Z,17.48
2022-08-23T00:12:54.038Z,17.37
2022-08-23T00:15:56.214Z,16.96
2022-08-23T00:18:58.382Z,16.79
2022-08-23T00:22:00.513Z,16.81
2022-08-23T00:25:02.666Z,17.00
2022-08-23T00:28:04.910Z,16.93
2022-08-23T00:31:14.773Z,17.25
2022-08-23T00:34:17.220Z,17.12
2022-08-23T00:37:19.796Z,17.26
2022-08-23T00:40:21.999Z,17.32
2022-08-23T00:43:55.739Z,16.91
2022-08-23T00:47:16.569Z,16.67
2022-08-23T00:50:29.804Z,16.51
2022-08-23T00:53:34.853Z,16.57
2022-08-23T00:56:37.120Z,16.47
2022-08-23T00:59:39.430Z,16.53
2022-08-23T01:02:42.718Z,16.53
2022-08-23T01:06:07.590Z,16.46
2022-08-23T01:09:13.763Z,16.66
2022-08-23T01:12:32.713Z,16.55
2022-08-23T01:15:41.703Z,16.80
2022-08-23T01:18:43.916Z,17.08
2022-08-23T01:21:53.127Z,16.70
2022-08-23T01:25:06.865Z,16.61
2022-08-23T01:28:13.683Z,16.23
2022-08-23T01:31:16.080Z,16.35
2022-08-23T01:34:18.364Z,16.31
2022-08-23T01:37:21.047Z,16.28
2022-08-23T01:40:24.158Z,15.81
2022-08-23T01:43:26.635Z,15.76
2022-08-23T01:46:29.854Z,15.85
2022-08-23T01:49:33.310Z,16.14
2022-08-23T01:52:36.893Z,16.37
2022-08-23T01:55:41.030Z,16.28
2022-08-23T01:58:43.164Z,16.29
2022-08-23T02:01:47.644Z,16.19
2022-08-23T02:04:50.474Z,15.54
2022-08-23T02:07:53.027Z,15.35
2022-08-23T02:10:55.183Z,14.89
2022-08-23T02:13:58.986Z,14.93
2022-08-23T02:17:07.206Z,14.99
2022-08-23T02:20:09.750Z,15.03
2022-08-23T02:23:12.118Z,15.02
2022-08-23T02:26:14.698Z,14.82
2022-08-23T02:29:21.446Z,14.95
2022-08-23T02:32:27.109Z,15.09
2022-08-23T02:35:29.930Z,15.15
2022-08-23T02:38:32.078Z,15.27
2022-08-23T02:41:36.191Z,15.20
2022-08-23T02:44:38.570Z,15.33
2022-08-23T02:47:41.433Z,15.40
2022-08-23T02:50:50.474Z,15.35
2022-08-23T02:53:53.774Z,15.51
2022-08-23T02:56:58.119Z,15.21
2022-08-23T03:00:00.201Z,15.44
2022-08-23T03:03:02.318Z,15.48
2022-08-23T03:06:24.505Z,15.51
2022-08-23T03:09:27.084Z,15.48
2022-08-23T03:12:29.150Z,15.99
2022-08-23T03:15:31.988Z,16.31
2022-08-23T03:18:37.859Z,16.99
2022-08-23T03:21:40.043Z,17.04
2022-08-23T03:24:46.753Z,16.52
2022-08-23T03:27:49.122Z,16.56
2022-08-23T03:30:51.603Z,16.74
2022-08-23T03:33:53.954Z,16.99
2022-08-23T03:36:56.339Z,16.79
2022-08-23T03:39:58.947Z,16.47
2022-08-23T03:43:01.414Z,16.98
2022-08-23T03:46:05.933Z,16.93
2022-08-23T03:49:09.290Z,16.95
2022-08-23T03:52:20.754Z,16.50
2022-08-23T03:55:23.047Z,16.29
2022-08-23T03:58:29.485Z,16.60
2022-08-23T04:01:31.603Z,16.68
2022-08-23T04:04:34.271Z,16.86
2022-08-23T04:07:51.394Z,16.63
2022-08-23T04:10:56.586Z,16.90
2022-08-23T04:13:59.307Z,16.98
2022-08-23T04:17:01.536Z,16.49
2022-08-23T04:20:05.251Z,16.69
2022-08-23T04:23:09.840Z,16.38
2022-08-23T04:26:25.164Z,16.32
2022-08-23T04:29:34.506Z,16.42
2022-08-23T04:32:37.707Z,16.58
2022-08-23T04:35:41.495Z,16.49
2022-08-23T04:38:44.651Z,16.36
2022-08-23T04:42:08.809Z,16.24
2022-08-23T04:45:14.213Z,16.44
2022-08-23T04:48:20.119Z,16.54
2022-08-23T04:51:24.558Z,16.57
2022-08-23T04:54:27.009Z,16.09
2022-08-23T04:57:57.150Z,16.09
2022-08-23T05:01:07.829Z,16.46
2022-08-23T05:04:10.768Z,16.40
2022-08-23T05:07:15.599Z,16.58
2022-08-23T05:10:18.490Z,16.71
2022-08-23T05:13:24.150Z,16.55
2022-08-23T05:16:26.479Z,16.65
2022-08-23T05:19:44.191Z,16.84
2022-08-23T05:22:49.975Z,16.87
2022-08-23T05:25:55.088Z,16.90
2022-08-23T05:29:04.094Z,16.97
2022-08-23T05:32:11.970Z,16.39
2022-08-23T05:35:14.284Z,16.08
2022-08-23T05:38:20.934Z,15.78
2022-08-23T05:41:27.214Z,16.11
2022-08-23T05:44:42.019Z,16.66
2022-08-23T05:47:46.454Z,16.95
2022-08-23T05:51:14.459Z,16.95
2022-08-23T05:54:17.155Z,17.08
2022-08-23T05:57:23.665Z,17.18
2022-08-23T06:00:37.229Z,17.44
2022-08-23T06:03:43.076Z,17.53
2022-08-23T06:06:45.332Z,17.47
2022-08-23T06:09:47.563Z,17.60
2022-08-23T06:12:49.855Z,17.74
2022-08-23T06:15:51.952Z,17.78
2022-08-23T06:18:54.999Z,17.69
2022-08-23T06:22:15.482Z,17.80
2022-08-23T06:25:18.011Z,17.73
2022-08-23T06:28:29.328Z,17.56
2022-08-23T06:31:47.730Z,17.85
2022-08-23T06:35:31.397Z,17.81
2022-08-23T06:38:47.439Z,17.57
2022-08-23T06:42:36.388Z,17.63
2022-08-23T06:45:37.727Z,17.83
2022-08-23T06:48:40.497Z,18.47
2022-08-23T06:51:46.008Z,18.84
2022-08-23T06:54:53.272Z,19.07
2022-08-23T06:58:18.865Z,19.23
2022-08-23T07:01:56.813Z,18.95
2022-08-23T07:05:21.722Z,19.05
2022-08-23T07:08:46.982Z,18.61
2022-08-23T07:11:49.300Z,18.68
2022-08-23T07:14:51.443Z,18.58
2022-08-23T07:17:54.035Z,18.68
2022-08-23T07:20:58.732Z,18.90
2022-08-23T07:24:01.259Z,18.42
2022-08-23T07:27:08.637Z,18.73
2022-08-23T07:30:17.354Z,18.93
2022-08-23T07:33:22.592Z,18.98
2022-08-23T07:36:42.906Z,19.14
2022-08-23T07:39:46.035Z,19.23
2022-08-23T07:42:48.657Z,19.19
2022-08-23T07:45:51.692Z,18.72
2022-08-23T07:48:55.212Z,19.35
2022-08-23T07:52:18.934Z,20.01
2022-08-23T07:55:21.417Z,19.77
2022-08-23T07:58:56.049Z,20.30
2022-08-23T08:02:08.870Z,19.31
2022-08-23T08:05:11.826Z,19.21
2022-08-23T08:08:14.739Z,19.25
2022-08-23T08:11:20.073Z,19.19
2022-08-23T08:14:25.144Z,19.61
2022-08-23T08:17:31.004Z,20.32
2022-08-23T08:20:49.354Z,20.12
2022-08-23T08:24:13.519Z,19.93
2022-08-23T08:27:22.188Z,19.93
2022-08-23T08:30:24.339Z,19.52
2022-08-23T08:33:30.707Z,20.20
2022-08-23T08:36:43.959Z,20.65
2022-08-23T08:39:52.256Z,20.74
2022-08-23T08:43:20.593Z,20.83
2022-08-23T08:46:45.336Z,20.75
2022-08-23T08:50:05.710Z,20.84
2022-08-23T08:53:16.320Z,21.48
2022-08-23T08:56:38.918Z,21.09
2022-08-23T09:00:25.982Z,20.76
2022-08-23T09:03:32.807Z,20.39
2022-08-23T09:06:55.047Z,20.64
2022-08-23T09:10:43.478Z,20.76
2022-08-23T09:14:01.262Z,21.03
2022-08-23T09:17:50.839Z,21.17
2022-08-23T09:20:55.023Z,21.43
2022-08-23T09:24:01.015Z,21.07
2022-08-23T09:27:23.382Z,21.01
2022-08-23T09:30:55.408Z,21.13
2022-08-23T09:33:59.511Z,21.90
2022-08-23T09:37:23.349Z,21.43
2022-08-23T09:40:38.987Z,21.89
2022-08-23T09:43:48.220Z,21.58
2022-08-23T09:46:54.455Z,22.15
2022-08-23T09:49:56.771Z,22.28
2022-08-23T09:53:29.119Z,22.78
2022-08-23T09:56:41.525Z,22.86
2022-08-23T09:59:47.959Z,22.75
2022-08-23T10:02:58.071Z,22.88
2022-08-23T10:06:03.783Z,22.20
2022-08-23T10:09:09.851Z,23.06
2022-08-23T10:12:15.423Z,23.32
2022-08-23T10:15:18.818Z,22.63
2022-08-23T10:18:51.269Z,24.08
2022-08-23T10:22:23.849Z,24.21
2022-08-23T10:25:58.765Z,24.50
2022-08-23T10:29:41.046Z,24.30
2022-08-23T10:32:57.217Z,24.28
2022-08-23T10:36:16.761Z,24.32
2022-08-23T10:39:30.064Z,24.65
2022-08-23T10:43:07.550Z,24.61
2022-08-23T10:46:10.809Z,24.81
2022-08-23T10:49:13.168Z,24.58
2022-08-23T10:52:39.126Z,24.43
2022-08-23T10:56:07.583Z,24.62
2022-08-23T10:59:20.844Z,24.51
2022-08-23T11:02:48.817Z,24.41
2022-08-23T11:06:37.163Z,23.74
2022-08-23T11:09:58.345Z,23.21
2022-08-23T11:13:20.838Z,23.38
2022-08-23T11:16:31.158Z,23.51
2022-08-23T11:19:58.322Z,24.31
2022-08-23T11:23:04.904Z,24.25
2022-08-23T11:26:11.505Z,23.33
2022-08-23T11:29:22.471Z,23.21
2022-08-23T11:32:39.007Z,23.59
2022-08-23T11:36:09.264Z,23.94
2022-08-23T11:39:15.784Z,24.29
2022-08-23T11:42:39.782Z,24.02
2022-08-23T11:45:46.747Z,23.46
2022-08-23T11:49:30.146Z,23.59
2022-08-23T11:52:52.371Z,25.14
2022-08-23T11:56:12.952Z,25.52
2022-08-23T11:59:49.271Z,23.75
2022-08-23T12:03:02.584Z,23.95
2022-08-23T12:06:09.815Z,23.38
2022-08-23T12:09:21.093Z,23.55
2022-08-23T12:12:37.640Z,23.51
2022-08-23T12:16:16.637Z,23.53
2022-08-23T12:19:25.239Z,23.30
2022-08-23T12:22:52.845Z,23.29
2022-08-23T12:26:09.578Z,22.72
2022-08-23T12:29:44.915Z,22.41
2022-08-23T12:33:29.050Z,22.54
2022-08-23T12:36:58.010Z,22.93
2022-08-23T12:40:02.342Z,23.21
2022-08-23T12:43:16.742Z,23.31
2022-08-23T12:46:42.400Z,22.37
2022-08-23T12:50:00.406Z,22.56
2022-08-23T12:53:10.323Z,22.47
2022-08-23T12:56:32.283Z,23.14
2022-08-23T13:00:16.407Z,22.85
2022-08-23T13:03:34.344Z,23.21
2022-08-23T13:06:47.815Z,23.57
2022-08-23T13:09:53.210Z,24.14
2022-08-23T13:12:56.154Z,23.69
2022-08-23T13:16:00.618Z,23.94
2022-08-23T13:19:33.639Z,25.11
2022-08-23T13:22:40.185Z,24.95
2022-08-23T13:25:43.025Z,25.40
2022-08-23T13:29:12.055Z,25.36
2022-08-23T13:32:33.561Z,25.53
2022-08-23T13:35:46.987Z,24.72
2022-08-23T13:38:49.627Z,24.10
2022-08-23T13:41:51.887Z,23.55
2022-08-23T13:44:54.880Z,24.16
2022-08-23T13:48:39.558Z,26.65
2022-08-23T13:52:18.346Z,27.48
2022-08-23T13:55:22.275Z,26.13
2022-08-23T13:58:31.120Z,25.53
2022-08-23T14:01:33.244Z,25.03
2022-08-23T14:04:35.428Z,24.91
2022-08-23T14:07:37.580Z,24.82
2022-08-23T14:10:39.858Z,25.15
2022-08-23T14:13:43.669Z,24.92
2022-08-23T14:16:45.961Z,24.79
2022-08-23T14:20:32.848Z,25.66
2022-08-23T14:23:12.043Z,25.07
2022-08-23T14:26:17.757Z,25.32
2022-08-23T14:29:22.499Z,25.23
2022-08-23T14:32:25.573Z,26.35
2022-08-23T14:35:28.015Z,25.96
2022-08-23T14:38:30.160Z,28.09
2022-08-23T14:41:32.320Z,26.83
2022-08-23T14:44:36.305Z,25.50
2022-08-23T14:47:38.716Z,25.28
2022-08-23T14:50:41.311Z,25.00
2022-08-23T14:53:43.455Z,25.57
2022-08-23T14:56:45.772Z,25.42
2022-08-23T14:59:47.937Z,25.11
2022-08-23T15:02:50.300Z,24.61
2022-08-23T15:05:53.211Z,24.65
2022-08-23T15:08:55.421Z,24.44
2022-08-23T15:15:21.823Z,24.95
2022-08-23T15:18:24.330Z,24.85
2022-08-23T15:21:27.079Z,23.77
2022-08-23T15:24:30.646Z,23.59
2022-08-23T15:27:32.774Z,24.12
2022-08-23T15:30:35.121Z,23.66
2022-08-23T15:33:37.351Z,23.45
2022-08-23T15:36:41.519Z,23.51
2022-08-23T15:39:44.055Z,23.75
2022-08-23T15:42:46.349Z,23.36
2022-08-23T15:45:48.749Z,23.47
2022-08-23T15:49:06.158Z,23.48
2022-08-23T15:52:08.311Z,23.54
2022-08-23T15:55:10.923Z,22.85
2022-08-23T15:58:20.280Z,22.82
2022-08-23T16:01:24.962Z,23.05
2022-08-23T16:04:32.572Z,23.12
2022-08-23T16:07:38.701Z,23.14
2022-08-23T16:10:40.901Z,23.03
2022-08-23T16:13:44.662Z,23.04
2022-08-23T16:16:47.020Z,23.02
2022-08-23T16:19:49.671Z,22.72
2022-08-23T16:22:52.386Z,22.62
2022-08-23T16:25:59.129Z,22.55
2022-08-23T16:29:06.818Z,22.53
2022-08-23T16:32:08.983Z,22.37
2022-08-23T16:35:11.242Z,22.30
2022-08-23T16:38:13.359Z,22.52
2022-08-23T16:41:15.718Z,22.32
2022-08-23T16:44:17.851Z,22.34
2022-08-23T16:47:20.074Z,22.57
2022-08-23T16:50:22.287Z,22.49
2022-08-23T16:53:26.920Z,22.67
2022-08-23T16:56:29.832Z,22.64
2022-08-23T16:59:32.096Z,22.95
2022-08-23T17:02:36.520Z,23.07
2022-08-23T17:05:38.978Z,22.74
2022-08-23T17:08:41.192Z,22.85
2022-08-23T17:11:43.869Z,22.65
2022-08-23T17:14:46.395Z,23.08
2022-08-23T17:17:49.367Z,23.11
2022-08-23T17:20:51.563Z,23.04
2022-08-23T17:23:53.780Z,22.99
2022-08-23T17:26:55.903Z,22.97
2022-08-23T17:29:58.070Z,22.87
2022-08-23T17:33:00.302Z,22.58
2022-08-23T17:36:03.140Z,22.47
2022-08-23T17:39:08.960Z,22.32
2022-08-23T17:42:11.075Z,22.17
2022-08-23T17:45:13.856Z,22.06
2022-08-23T17:48:17.633Z,22.04
2022-08-23T17:51:19.790Z,21.98
2022-08-23T17:54:21.902Z,21.89
2022-08-23T17:57:24.144Z,21.90
2022-08-23T18:00:26.742Z,22.09
2022-08-23T18:03:33.782Z,22.04
2022-08-23T18:06:36.519Z,22.16
2022-08-23T18:09:45.089Z,21.63
2022-08-23T18:12:52.963Z,21.44
2022-08-23T18:15:55.760Z,21.29
2022-08-23T18:18:58.230Z,21.17
2022-08-23T18:22:02.496Z,21.12
2022-08-23T18:25:08.744Z,21.29
2022-08-23T18:28:11.619Z,21.08
2022-08-23T18:31:14.989Z,21.01
2022-08-23T18:34:17.692Z,21.10
2022-08-23T18:37:21.700Z,21.22
2022-08-23T18:40:25.078Z,21.05
2022-08-23T18:43:27.280Z,20.88
2022-08-23T18:46:42.191Z,20.90
2022-08-23T18:49:44.321Z,21.10
2022-08-23T18:52:46.425Z,20.77
2022-08-23T18:55:50.067Z,21.09
2022-08-23T18:58:52.496Z,20.92
2022-08-23T19:01:55.236Z,20.60
2022-08-23T19:04:57.534Z,20.40
2022-08-23T19:07:59.633Z,20.14
2022-08-23T19:11:01.710Z,20.19
2022-08-23T19:14:05.200Z,20.24
2022-08-23T19:17:10.267Z,20.22
2022-08-23T19:20:12.390Z,20.21
2022-08-23T19:23:14.505Z,20.37
2022-08-23T19:26:18.082Z,20.47
2022-08-23T19:29:21.722Z,20.21
2022-08-23T19:32:24.007Z,20.07
2022-08-23T19:35:26.166Z,19.98
2022-08-23T19:38:29.230Z,19.95
2022-08-23T19:41:32.093Z,20.04
2022-08-23T19:44:35.320Z,20.06
2022-08-23T19:47:37.631Z,20.18
2022-08-23T19:50:40.180Z,19.87
2022-08-23T19:53:42.483Z,19.84
2022-08-23T19:56:48.981Z,19.94
2022-08-23T19:59:51.076Z,19.80
2022-08-23T20:02:53.278Z,19.54
2022-08-23T20:05:56.116Z,19.57
2022-08-23T20:08:58.582Z,19.38
2022-08-23T20:12:07.752Z,19.34
2022-08-23T20:15:12.070Z,19.24
2022-08-23T20:18:15.268Z,19.26
2022-08-23T20:21:23.459Z,19.15
2022-08-23T20:24:48.719Z,19.27
2022-08-23T20:27:48.756Z,19.36
2022-08-23T20:30:50.888Z,18.81
2022-08-23T20:33:53.114Z,18.71
2022-08-23T20:36:56.300Z,18.75
2022-08-23T20:39:58.859Z,18.84
2022-08-23T20:43:01.479Z,18.79
2022-08-23T20:46:04.077Z,19.04
2022-08-23T20:49:06.402Z,18.77
2022-08-23T20:52:08.542Z,18.51
2022-08-23T20:55:11.255Z,18.53
2022-08-23T20:58:13.326Z,18.45
2022-08-23T21:01:16.442Z,18.83
2022-08-23T21:04:18.800Z,19.05
2022-08-23T21:07:21.603Z,19.03
2022-08-23T21:10:24.110Z,19.17
2022-08-23T21:13:26.314Z,19.25
2022-08-23T21:16:28.502Z,19.37
2022-08-23T21:19:31.303Z,19.40
2022-08-23T21:22:33.459Z,19.33
2022-08-23T21:25:35.681Z,19.43
2022-08-23T21:28:37.771Z,19.87
2022-08-23T21:31:40.033Z,19.95
2022-08-23T21:34:42.164Z,19.89
2022-08-23T21:37:44.344Z,19.87
2022-08-23T21:40:46.505Z,20.07
2022-08-23T21:43:48.583Z,20.10
2022-08-23T21:46:50.667Z,19.95
2022-08-23T21:49:53.338Z,19.78
2022-08-23T21:53:04.752Z,19.81
2022-08-23T21:56:07.484Z,19.70
2022-08-23T21:59:11.485Z,19.59
2022-08-23T22:02:13.771Z,19.48
2022-08-23T22:05:15.965Z,19.38
2022-08-23T22:08:18.078Z,19.18
2022-08-23T22:11:23.621Z,19.01
2022-08-23T22:14:27.452Z,18.84
2022-08-23T22:17:33.822Z,18.92
2022-08-23T22:20:36.245Z,18.83
2022-08-23T22:23:43.305Z,19.05
2022-08-23T22:26:45.813Z,19.00
2022-08-23T22:29:47.918Z,19.33
2022-08-23T22:32:50.015Z,19.38
2022-08-23T22:35:52.827Z,19.33
2022-08-23T22:38:55.318Z,19.28
2022-08-23T22:41:57.412Z,19.15
2022-08-23T22:45:00.207Z,19.30
2022-08-23T22:48:02.529Z,19.31
2022-08-23T22:51:14.323Z,19.17
2022-08-23T22:54:16.439Z,19.24
2022-08-23T22:57:18.507Z,19.08
2022-08-23T23:00:20.754Z,19.01
2022-08-23T23:03:22.874Z,19.00
2022-08-23T23:06:25.715Z,19.05
2022-08-23T23:09:27.967Z,18.95
2022-08-23T23:12:31.444Z,18.60
2022-08-23T23:15:33.547Z,18.75
2022-08-23T23:18:35.895Z,18.69
2022-08-23T23:21:41.532Z,18.79
2022-08-23T23:24:43.650Z,18.86
2022-08-23T23:27:45.830Z,18.81
2022-08-23T23:30:51.145Z,18.55
2022-08-23T23:33:53.438Z,18.79
2022-08-23T23:36:59.015Z,18.82
2022-08-23T23:40:01.169Z,18.90
2022-08-23T23:43:03.621Z,18.82
2022-08-23T23:46:11.021Z,18.97
2022-08-23T23:49:13.156Z,18.93
2022-08-23T23:52:16.174Z,19.03
2022-08-23T23:55:19.890Z,19.17
2022-08-23T23:58:21.970Z,19.13
